createdAt,value
2023-03-15T00:00:36.362Z,7.311
2023-03-15T00:01:35.147Z,7.311
2023-03-15T00:02:35.144Z,7.311
2023-03-15T00:03:34.897Z,7.311
2023-03-15T00:04:34.635Z,7.311
2023-03-15T00:05:35.015Z,7.311
2023-03-15T00:06:34.485Z,7.311
2023-03-15T00:07:35.312Z,7.301
2023-03-15T00:08:34.700Z,7.260
2023-03-15T00:09:35.104Z,7.270
2023-03-15T00:10:34.802Z,7.291
2023-03-15T00:11:35.552Z,7.291
2023-03-15T00:12:35.030Z,7.311
2023-03-15T00:13:34.470Z,7.299
2023-03-15T00:14:34.740Z,7.311
2023-03-15T00:15:35.606Z,7.311
2023-03-15T00:16:35.667Z,7.258
2023-03-15T00:17:35.226Z,7.25
2023-03-15T00:18:34.967Z,7.25
2023-03-15T00:19:39.706Z,7.299
2023-03-15T00:20:35.645Z,6.199
2023-03-15T00:21:35.519Z,7.311
2023-03-15T00:22:35.172Z,7.311
2023-03-15T00:23:42.768Z,7.299
2023-03-15T00:24:38.091Z,7.303
2023-03-15T00:25:34.983Z,7.311
2023-03-15T00:26:34.324Z,7.311
2023-03-15T00:27:34.623Z,7.311
2023-03-15T00:28:34.685Z,7.311
2023-03-15T00:29:35.338Z,7.311
2023-03-15T00:30:35.568Z,7.311
2023-03-15T00:31:35.130Z,7.311
2023-03-15T00:32:34.571Z,7.291
2023-03-15T00:33:35.274Z,7.311
2023-03-15T00:34:35.018Z,7.311
2023-03-15T00:35:34.641Z,7.311
2023-03-15T00:36:35.018Z,7.311
2023-03-15T00:37:34.564Z,7.281
2023-03-15T00:38:34.844Z,7.311
2023-03-15T00:39:34.788Z,7.291
2023-03-15T00:40:35.063Z,7.301
2023-03-15T00:41:34.642Z,7.311
2023-03-15T00:42:35.015Z,7.311
2023-03-15T00:43:34.384Z,7.311
2023-03-15T00:44:34.952Z,7.311
2023-03-15T00:45:36.161Z,6
2023-03-15T00:46:34.836Z,7.311
2023-03-15T00:47:35.031Z,7.291
2023-03-15T00:48:34.549Z,7.25
2023-03-15T00:49:34.784Z,7.281
2023-03-15T00:50:35.417Z,7.270
2023-03-15T00:51:34.802Z,7.311
2023-03-15T00:52:35.263Z,7.291
2023-03-15T00:53:34.575Z,7.311
2023-03-15T00:54:35.162Z,7.301
2023-03-15T00:56:34.453Z,7.25
2023-03-15T00:58:37.677Z,7.311
2023-03-15T00:59:34.707Z,7.311
2023-03-15T01:00:36.632Z,7.311
2023-03-15T01:01:40.519Z,7.311
2023-03-15T01:02:35.406Z,7.311
2023-03-15T01:03:36.735Z,7.311
2023-03-15T01:04:34.698Z,7.291
2023-03-15T01:05:35.938Z,7.260
2023-03-15T01:06:35.238Z,7.301
2023-03-15T01:07:34.482Z,7.311
2023-03-15T01:08:34.817Z,7.311
2023-03-15T01:09:35.351Z,7.311
2023-03-15T01:10:35.060Z,7.311
2023-03-15T01:11:34.500Z,7.311
2023-03-15T01:12:34.944Z,7.291
2023-03-15T01:13:35.090Z,7.291
2023-03-15T01:14:34.678Z,7.311
2023-03-15T01:15:35.307Z,7.281
2023-03-15T01:16:34.721Z,7.301
2023-03-15T01:17:35.575Z,7.311
2023-03-15T01:18:35.418Z,7.311
2023-03-15T01:19:35.044Z,7.311
2023-03-15T01:20:35.222Z,7.311
2023-03-15T01:21:34.795Z,7.311
2023-03-15T01:22:35.008Z,7.311
2023-03-15T01:23:34.462Z,7.311
2023-03-15T01:24:34.807Z,7.311
2023-03-15T01:25:35.333Z,7.311
2023-03-15T01:26:34.506Z,7.311
2023-03-15T01:27:34.982Z,7.311
2023-03-15T01:28:34.159Z,7.301
2023-03-15T01:29:34.754Z,7.301
2023-03-15T01:30:35.577Z,7.311
2023-03-15T01:31:35.064Z,7.311
2023-03-15T01:32:35.248Z,7.311
2023-03-15T01:33:34.396Z,7.311
2023-03-15T01:34:34.754Z,7.311
2023-03-15T01:35:35.846Z,7.311
2023-03-15T01:36:35.543Z,7.311
2023-03-15T01:37:35.007Z,7.311
2023-03-15T01:38:34.704Z,7.311
2023-03-15T01:39:34.979Z,7.311
2023-03-15T01:40:35.061Z,7.311
2023-03-15T01:41:34.721Z,7.311
2023-03-15T01:42:34.874Z,7.311
2023-03-15T01:43:35.136Z,7.311
2023-03-15T01:44:34.624Z,7.311
2023-03-15T01:45:35.644Z,7.311
2023-03-15T01:46:35.293Z,7.311
2023-03-15T01:47:34.711Z,7.311
2023-03-15T01:48:35.161Z,7.311
2023-03-15T01:49:34.438Z,7.311
2023-03-15T01:50:34.884Z,7.322
2023-03-15T01:51:35.426Z,7.311
2023-03-15T01:52:34.584Z,7.311
2023-03-15T01:53:34.530Z,7.311
2023-03-15T01:54:34.607Z,7.321
2023-03-15T01:55:34.873Z,7.375
2023-03-15T01:56:35.324Z,7.356
2023-03-15T01:57:34.760Z,7.311
2023-03-15T01:58:36.802Z,7.311
2023-03-15T01:59:34.983Z,7.324
2023-03-15T02:00:36.028Z,7.375
2023-03-15T02:01:35.046Z,7.322
2023-03-15T02:02:34.399Z,7.348
2023-03-15T02:03:34.935Z,7.375
2023-03-15T02:04:35.468Z,7.366
2023-03-15T02:05:35.320Z,7.375
2023-03-15T02:06:34.467Z,7.375
2023-03-15T02:07:34.829Z,7.333
2023-03-15T02:08:35.304Z,7.333
2023-03-15T02:09:34.915Z,7.354
2023-03-15T02:10:35.628Z,7.311
2023-03-15T02:11:34.570Z,7.364
2023-03-15T02:12:35.263Z,7.375
2023-03-15T02:13:35.313Z,7.364
2023-03-15T02:14:34.532Z,7.375
2023-03-15T02:15:35.285Z,7.375
2023-03-15T02:16:35.045Z,7.375
2023-03-15T02:17:34.688Z,7.375
2023-03-15T02:18:34.398Z,7.375
2023-03-15T02:19:34.063Z,7.375
2023-03-15T02:20:34.887Z,7.375
2023-03-15T02:21:34.846Z,7.375
2023-03-15T02:22:34.960Z,7.375
2023-03-15T02:23:35.496Z,7.375
2023-03-15T02:24:35.018Z,7.375
2023-03-15T02:25:34.752Z,7.375
2023-03-15T02:26:34.705Z,7.375
2023-03-15T02:27:35.129Z,7.375
2023-03-15T02:28:48.645Z,7.375
2023-03-15T02:29:35.018Z,7.375
2023-03-15T02:30:35.089Z,7.375
2023-03-15T02:31:34.288Z,7.375
2023-03-15T02:32:34.971Z,7.375
2023-03-15T02:33:34.555Z,7.406
2023-03-15T02:34:34.704Z,7.375
2023-03-15T02:35:35.055Z,7.375
2023-03-15T02:36:34.691Z,7.375
2023-03-15T02:37:34.769Z,7.385
2023-03-15T02:38:35.085Z,7.375
2023-03-15T02:39:34.037Z,7.385
2023-03-15T02:40:34.746Z,7.426
2023-03-15T02:41:34.750Z,7.375
2023-03-15T02:42:34.814Z,7.436
2023-03-15T02:43:34.635Z,7.426
2023-03-15T02:44:39.776Z,7.426
2023-03-15T02:45:35.930Z,7.436
2023-03-15T02:46:34.902Z,7.426
2023-03-15T02:47:35.114Z,7.406
2023-03-15T02:48:34.606Z,7.375
2023-03-15T02:49:34.812Z,7.375
2023-03-15T02:50:35.090Z,7.375
2023-03-15T02:51:34.177Z,7.375
2023-03-15T02:52:34.637Z,7.375
2023-03-15T02:53:34.933Z,7.354
2023-03-15T02:54:34.765Z,7.364
2023-03-15T02:55:34.796Z,7.322
2023-03-15T02:56:34.286Z,7.311
2023-03-15T02:57:33.955Z,7.311
2023-03-15T02:58:34.200Z,7.311
2023-03-15T02:59:33.877Z,7.311
2023-03-15T03:00:35.951Z,7.311
2023-03-15T03:01:34.709Z,7.311
2023-03-15T03:02:34.807Z,7.311
2023-03-15T03:03:34.862Z,7.311
2023-03-15T03:04:34.845Z,7.322
2023-03-15T03:05:34.859Z,7.311
2023-03-15T03:06:34.407Z,7.311
2023-03-15T03:07:33.960Z,7.311
2023-03-15T03:08:34.440Z,7.311
2023-03-15T03:09:34.134Z,7.311
2023-03-15T03:10:34.645Z,7.291
2023-03-15T03:11:34.524Z,7.262
2023-03-15T03:12:34.418Z,7.25
2023-03-15T03:13:34.400Z,7.25
2023-03-15T03:14:34.501Z,7.25
2023-03-15T03:15:35.591Z,7.25
2023-03-15T03:16:34.789Z,7.25
2023-03-15T03:17:34.893Z,7.25
2023-03-15T03:18:34.621Z,7.25
2023-03-15T03:19:34.204Z,7.25
2023-03-15T03:20:34.649Z,7.25
2023-03-15T03:21:34.253Z,7.25
2023-03-15T03:23:33.931Z,7.25
2023-03-15T03:24:34.583Z,7.25
2023-03-15T03:25:35.177Z,7.25
2023-03-15T03:26:34.488Z,7.25
2023-03-15T03:27:34.437Z,7.25
2023-03-15T03:28:34.392Z,7.25
2023-03-15T03:29:34.280Z,7.25
2023-03-15T03:31:35.151Z,7.25
2023-03-15T03:32:34.236Z,7.25
2023-03-15T03:34:34.236Z,7.25
2023-03-15T03:35:34.362Z,7.25
2023-03-15T03:36:33.922Z,7.25
2023-03-15T03:37:34.863Z,7.25
2023-03-15T03:38:34.545Z,7.25
2023-03-15T03:39:34.723Z,7.25
2023-03-15T03:40:34.973Z,7.218
2023-03-15T03:41:33.949Z,7.186
2023-03-15T03:42:34.767Z,7.186
2023-03-15T03:43:34.656Z,7.186
2023-03-15T03:44:34.150Z,7.197
2023-03-15T03:45:34.661Z,7.186
2023-03-15T03:46:35.081Z,7.186
2023-03-15T03:47:33.946Z,7.229
2023-03-15T03:48:34.589Z,7.186
2023-03-15T03:49:34.296Z,5.900
2023-03-15T03:50:34.828Z,7.186
2023-03-15T03:51:34.696Z,7.208
2023-03-15T03:52:34.793Z,7.197
2023-03-15T03:53:34.698Z,7.186
2023-03-15T03:54:34.390Z,7.186
2023-03-15T03:55:34.972Z,7.186
2023-03-15T03:56:34.309Z,7.186
2023-03-15T03:57:34.365Z,7.186
2023-03-15T03:58:34.592Z,7.186
2023-03-15T03:59:34.263Z,7.186
2023-03-15T04:00:35.588Z,7.186
2023-03-15T04:01:35.469Z,7.186
2023-03-15T04:02:34.969Z,7.186
2023-03-15T04:03:33.995Z,7.186
2023-03-15T04:04:34.052Z,7.176
2023-03-15T04:05:34.774Z,7.176
2023-03-15T04:06:34.621Z,7.186
2023-03-15T04:07:34.864Z,7.186
2023-03-15T04:08:34.971Z,7.186
2023-03-15T04:09:35.117Z,7.186
2023-03-15T04:10:35.064Z,7.186
2023-03-15T04:11:34.731Z,7.186
2023-03-15T04:12:35.262Z,7.186
2023-03-15T04:13:34.501Z,7.186
2023-03-15T04:14:34.403Z,7.186
2023-03-15T04:15:35.276Z,7.145
2023-03-15T04:16:34.433Z,7.125
2023-03-15T04:17:34.537Z,7.145
2023-03-15T04:18:34.308Z,7.166
2023-03-15T04:19:34.587Z,7.145
2023-03-15T04:20:35.252Z,7.156
2023-03-15T04:21:33.847Z,7.135
2023-03-15T04:22:34.953Z,7.186
2023-03-15T04:23:34.969Z,7.186
2023-03-15T04:24:34.703Z,7.186
2023-03-15T04:25:34.670Z,7.166
2023-03-15T04:26:35.029Z,7.186
2023-03-15T04:27:34.075Z,7.186
2023-03-15T04:28:34.927Z,7.186
2023-03-15T04:29:34.995Z,7.186
2023-03-15T04:30:34.305Z,7.166
2023-03-15T04:31:34.429Z,7.135
2023-03-15T04:32:34.544Z,7.125
2023-03-15T04:33:34.450Z,7.135
2023-03-15T04:34:35.455Z,7.186
2023-03-15T04:35:40.247Z,7.135
2023-03-15T04:36:34.610Z,7.125
2023-03-15T04:37:34.819Z,7.125
2023-03-15T04:38:34.280Z,7.125
2023-03-15T04:39:34.316Z,7.125
2023-03-15T04:40:34.413Z,7.145
2023-03-15T04:41:34.287Z,7.166
2023-03-15T04:42:34.721Z,7.135
2023-03-15T04:43:34.880Z,7.125
2023-03-15T04:44:34.564Z,7.125
2023-03-15T04:45:35.491Z,7.125
2023-03-15T04:46:36.981Z,7.125
2023-03-15T04:47:35.019Z,7.112
2023-03-15T04:48:34.570Z,7.125
2023-03-15T04:49:48.673Z,7.074
2023-03-15T04:50:35.117Z,7.071
2023-03-15T04:51:34.280Z,7.125
2023-03-15T04:52:34.656Z,7.125
2023-03-15T04:53:34.822Z,7.125
2023-03-15T04:54:34.354Z,7.125
2023-03-15T04:55:35.019Z,7.125
2023-03-15T04:56:34.585Z,7.125
2023-03-15T04:57:34.912Z,7.099
2023-03-15T04:58:35.033Z,7.061
2023-03-15T04:59:34.588Z,7.061
2023-03-15T05:00:36.109Z,7.061
2023-03-15T05:01:48.899Z,7.061
2023-03-15T05:02:35.199Z,7.044
2023-03-15T05:03:34.712Z,7
2023-03-15T05:04:34.862Z,7
2023-03-15T05:05:35.163Z,7
2023-03-15T05:06:34.332Z,7
2023-03-15T05:07:34.920Z,7
2023-03-15T05:08:34.746Z,7
2023-03-15T05:09:35.249Z,7
2023-03-15T05:10:34.705Z,7.020
2023-03-15T05:11:34.782Z,7
2023-03-15T05:12:34.742Z,7.041
2023-03-15T05:13:34.662Z,7.010
2023-03-15T05:14:35.221Z,7
2023-03-15T05:15:34.947Z,7
2023-03-15T05:16:34.953Z,7
2023-03-15T05:17:34.251Z,7
2023-03-15T05:18:33.989Z,7
2023-03-15T05:19:34.420Z,7
2023-03-15T05:20:34.619Z,7
2023-03-15T05:21:34.376Z,7
2023-03-15T05:22:34.152Z,7
2023-03-15T05:23:34.533Z,7
2023-03-15T05:24:34.512Z,6.989
2023-03-15T05:25:36.833Z,6.979
2023-03-15T05:26:34.748Z,7
2023-03-15T05:27:34.976Z,7
2023-03-15T05:28:34.884Z,7
2023-03-15T05:29:35.472Z,7
2023-03-15T05:30:35.584Z,6.979
2023-03-15T05:31:35.446Z,7
2023-03-15T05:32:34.858Z,7
2023-03-15T05:34:34.144Z,7
2023-03-15T05:35:34.859Z,7
2023-03-15T05:36:35.008Z,7
2023-03-15T05:37:33.944Z,7
2023-03-15T05:38:34.594Z,7
2023-03-15T05:39:34.874Z,7
2023-03-15T05:41:34.445Z,7
2023-03-15T05:42:34.455Z,7
2023-03-15T05:43:34.417Z,7
2023-03-15T05:44:34.482Z,7
2023-03-15T05:45:35.151Z,7
2023-03-15T05:46:34.477Z,7
2023-03-15T05:47:34.686Z,7
2023-03-15T05:48:34.321Z,7.051
2023-03-15T05:49:34.488Z,7.010
2023-03-15T05:50:35.146Z,7
2023-03-15T05:51:34.230Z,7
2023-03-15T05:52:34.335Z,7
2023-03-15T05:53:34.684Z,7
2023-03-15T05:54:34.756Z,7
2023-03-15T05:55:35.708Z,7
2023-03-15T05:56:34.948Z,7
2023-03-15T05:57:35.214Z,7
2023-03-15T05:58:34.766Z,7
2023-03-15T05:59:35.348Z,7
2023-03-15T06:00:36.127Z,7
2023-03-15T06:02:34.570Z,7
2023-03-15T06:03:34.939Z,7
2023-03-15T06:04:36.057Z,7
2023-03-15T06:05:34.309Z,7
2023-03-15T06:06:34.566Z,7.041
2023-03-15T06:07:35.024Z,7.010
2023-03-15T06:08:34.758Z,7
2023-03-15T06:09:35.359Z,7
2023-03-15T06:10:35.471Z,7.020
2023-03-15T06:11:35.084Z,7.061
2023-03-15T06:12:34.764Z,7.020
2023-03-15T06:13:34.927Z,7
2023-03-15T06:14:35.033Z,7
2023-03-15T06:15:35.114Z,7
2023-03-15T06:16:34.418Z,7
2023-03-15T06:17:34.210Z,7.020
2023-03-15T06:18:34.971Z,7.051
2023-03-15T06:19:36.836Z,7
2023-03-15T06:20:35.364Z,7
2023-03-15T06:21:34.516Z,7
2023-03-15T06:22:34.587Z,7.035
2023-03-15T06:23:34.411Z,7.037
2023-03-15T06:24:34.562Z,7.061
2023-03-15T06:25:35.262Z,7.061
2023-03-15T06:26:34.405Z,7.053
2023-03-15T06:27:34.872Z,7.012
2023-03-15T06:28:34.536Z,7.017
2023-03-15T06:29:34.393Z,7.061
2023-03-15T06:30:35.353Z,7.008
2023-03-15T06:31:34.598Z,7
2023-03-15T06:32:34.975Z,7.017
2023-03-15T06:33:34.480Z,7
2023-03-15T06:34:35.156Z,7
2023-03-15T06:35:35.300Z,7
2023-03-15T06:36:35.885Z,7
2023-03-15T06:37:48.393Z,7
2023-03-15T06:38:34.627Z,7.008
2023-03-15T06:39:34.822Z,5.599
2023-03-15T06:40:35.798Z,7.061
2023-03-15T06:41:34.800Z,7.061
2023-03-15T06:42:35.014Z,7.061
2023-03-15T06:43:34.675Z,7.061
2023-03-15T06:44:35.046Z,7.061
2023-03-15T06:45:34.960Z,7.061
2023-03-15T06:46:35.001Z,7.061
2023-03-15T06:47:34.690Z,7.051
2023-03-15T06:48:34.604Z,7.061
2023-03-15T06:49:34.720Z,7.061
2023-03-15T06:50:46.408Z,7.061
2023-03-15T06:51:34.967Z,7.061
2023-03-15T06:52:34.710Z,7.061
2023-03-15T06:53:35.166Z,7.061
2023-03-15T06:54:37.161Z,7.061
2023-03-15T06:55:37.315Z,7.072
2023-03-15T06:56:36.253Z,7.061
2023-03-15T06:57:35.528Z,7.061
2023-03-15T06:58:39.633Z,7.061
2023-03-15T06:59:35.213Z,7.093
2023-03-15T07:00:41.138Z,7.114
2023-03-15T07:01:35.387Z,7.125
2023-03-15T07:02:40.409Z,7.125
2023-03-15T07:03:35.356Z,7.125
2023-03-15T07:04:35.071Z,7.125
2023-03-15T07:05:35.544Z,7.125
2023-03-15T07:06:40.401Z,7.125
2023-03-15T07:07:36.512Z,7.125
2023-03-15T07:08:35.280Z,7.125
2023-03-15T07:09:35.025Z,7.125
2023-03-15T07:10:35.779Z,7.186
2023-03-15T07:11:35.885Z,7.156
2023-03-15T07:12:35.850Z,7.125
2023-03-15T07:13:35.564Z,7.125
2023-03-15T07:14:36.133Z,7.125
2023-03-15T07:15:35.969Z,7.125
2023-03-15T07:16:35.791Z,7.125
2023-03-15T07:17:35.667Z,7.125
2023-03-15T07:18:36.305Z,7.125
2023-03-15T07:19:41.373Z,7.125
2023-03-15T07:20:51.358Z,7.114
2023-03-15T07:21:36.441Z,7.125
2023-03-15T07:22:35.824Z,7.125
2023-03-15T07:23:36.358Z,7.125
2023-03-15T07:24:36.125Z,7.125
2023-03-15T07:25:52.113Z,7.125
2023-03-15T07:26:36.072Z,7.125
2023-03-15T07:27:36.851Z,7.176
2023-03-15T07:28:51.019Z,7.186
2023-03-15T07:29:35.887Z,7.186
2023-03-15T07:30:37.531Z,7.186
2023-03-15T07:31:35.644Z,7.186
2023-03-15T07:32:41.256Z,7.186
2023-03-15T07:33:36.393Z,7.176
2023-03-15T07:34:36.352Z,5.900
2023-03-15T07:35:36.112Z,7.176
2023-03-15T07:36:35.694Z,7.176
2023-03-15T07:37:35.697Z,7.186
2023-03-15T07:38:36.479Z,7.176
2023-03-15T07:39:35.690Z,7.176
2023-03-15T07:40:37.114Z,7.166
2023-03-15T07:41:35.148Z,7.186
2023-03-15T07:42:43.520Z,7.186
2023-03-15T07:43:35.504Z,7.186
2023-03-15T07:44:35.638Z,7.208
2023-03-15T07:45:36.535Z,7.186
2023-03-15T07:46:36.177Z,7.186
2023-03-15T07:47:35.716Z,7.186
2023-03-15T07:48:36.028Z,7.186
2023-03-15T07:49:35.180Z,7.186
2023-03-15T07:50:35.758Z,7.186
2023-03-15T07:51:37.124Z,7.174
2023-03-15T07:52:35.979Z,7.169
2023-03-15T07:53:35.917Z,7.186
2023-03-15T07:54:36.093Z,7.186
2023-03-15T07:55:35.613Z,7.186
2023-03-15T07:56:35.640Z,7.169
2023-03-15T07:57:36.480Z,7.137
2023-03-15T07:58:35.596Z,7.186
2023-03-15T07:59:35.729Z,7.186
2023-03-15T08:00:38.345Z,7.186
2023-03-15T08:01:36.793Z,7.174
2023-03-15T08:02:36.833Z,7.169
2023-03-15T08:03:39.301Z,7.149
2023-03-15T08:04:37.069Z,7.186
2023-03-15T08:05:35.629Z,7.186
2023-03-15T08:06:35.865Z,7.186
2023-03-15T08:07:36.468Z,7.186
2023-03-15T08:08:36.657Z,7.186
2023-03-15T08:09:37.074Z,7.186
2023-03-15T08:10:55.355Z,7.186
2023-03-15T08:12:36.112Z,7.135
2023-03-15T08:13:35.680Z,7.166
2023-03-15T08:14:36.302Z,7.135
2023-03-15T08:15:37.100Z,7.135
2023-03-15T08:16:35.914Z,7.145
2023-03-15T08:17:36.351Z,7.125
2023-03-15T08:18:36.615Z,7.125
2023-03-15T08:19:35.988Z,7.156
2023-03-15T08:20:35.820Z,7.186
2023-03-15T08:21:36.698Z,7.145
2023-03-15T08:22:38.441Z,7.186
2023-03-15T08:23:36.099Z,7.186
2023-03-15T08:24:35.606Z,7.186
2023-03-15T08:25:36.833Z,7.125
2023-03-15T08:26:37.314Z,7.145
2023-03-15T08:27:36.144Z,7.186
2023-03-15T08:28:36.144Z,7.176
2023-03-15T08:29:36.811Z,7.186
2023-03-15T08:30:37.071Z,7.176
2023-03-15T08:31:36.938Z,7.186
2023-03-15T08:32:37.521Z,7.186
2023-03-15T08:33:36.275Z,7.186
2023-03-15T08:34:36.027Z,7.186
2023-03-15T08:35:36.657Z,7.186
2023-03-15T08:36:36.333Z,7.186
2023-03-15T08:37:36.719Z,7.186
2023-03-15T08:38:36.442Z,7.208
2023-03-15T08:39:36.090Z,7.186
2023-03-15T08:40:38.316Z,7.239
2023-03-15T08:41:36.387Z,7.25
2023-03-15T08:42:36.503Z,7.229
2023-03-15T08:43:36.051Z,7.229
2023-03-15T08:44:36.372Z,7.25
2023-03-15T08:45:50.926Z,7.239
2023-03-15T08:46:36.368Z,7.239
2023-03-15T08:47:36.300Z,7.186
2023-03-15T08:48:36.580Z,7.186
2023-03-15T08:49:36.723Z,7.166
2023-03-15T08:50:36.991Z,7.135
2023-03-15T08:51:35.577Z,7.186
2023-03-15T08:52:36.776Z,7.186
2023-03-15T08:53:36.145Z,7.186
2023-03-15T08:54:35.835Z,7.186
2023-03-15T08:55:36.407Z,7.197
2023-03-15T08:56:35.578Z,7.197
2023-03-15T08:57:35.903Z,7.186
2023-03-15T08:58:36.219Z,7.186
2023-03-15T08:59:45.477Z,7.218
2023-03-15T09:00:37.806Z,7.25
2023-03-15T09:01:36.197Z,7.186
2023-03-15T09:02:36.502Z,7.197
2023-03-15T09:03:35.977Z,7.25
2023-03-15T09:04:36.045Z,7.229
2023-03-15T09:05:35.334Z,7.218
2023-03-15T09:06:36.129Z,7.218
2023-03-15T09:07:35.804Z,7.25
2023-03-15T09:08:35.421Z,7.25
2023-03-15T09:09:35.623Z,7.239
2023-03-15T09:10:36.766Z,7.239
2023-03-15T09:11:36.724Z,7.25
2023-03-15T09:12:36.112Z,7.25
2023-03-15T09:13:35.812Z,7.25
2023-03-15T09:14:36.899Z,7.25
2023-03-15T09:15:38.249Z,7.25
2023-03-15T09:16:35.996Z,7.25
2023-03-15T09:17:35.704Z,7.25
2023-03-15T09:18:36.289Z,7.25
2023-03-15T09:19:35.356Z,7.25
2023-03-15T09:20:35.805Z,7.25
2023-03-15T09:21:36.059Z,7.25
2023-03-15T09:22:52.000Z,7.25
2023-03-15T09:23:35.293Z,7.25
2023-03-15T09:24:35.120Z,7.214
2023-03-15T09:25:40.398Z,7.212
2023-03-15T09:26:35.809Z,7.25
2023-03-15T09:27:35.933Z,7.25
2023-03-15T09:28:36.174Z,7.25
2023-03-15T09:29:35.486Z,7.237
2023-03-15T09:30:36.182Z,7.25
2023-03-15T09:31:40.518Z,7.25
2023-03-15T09:32:36.610Z,7.223
2023-03-15T09:33:35.834Z,7.199
2023-03-15T09:34:41.984Z,7.241
2023-03-15T09:35:35.413Z,7.25
2023-03-15T09:36:35.459Z,7.25
2023-03-15T09:37:36.002Z,7.25
2023-03-15T09:38:35.168Z,7.281
2023-03-15T09:39:35.731Z,7.25
2023-03-15T09:40:36.149Z,7.25
2023-03-15T09:41:35.696Z,7.25
2023-03-15T09:42:35.957Z,7.25
2023-03-15T09:43:36.088Z,7.25
2023-03-15T09:44:35.222Z,7.25
2023-03-15T09:45:35.896Z,7.25
2023-03-15T09:46:36.140Z,7.25
2023-03-15T09:47:35.520Z,7.25
2023-03-15T09:48:35.712Z,7.25
2023-03-15T09:49:49.984Z,7.25
2023-03-15T09:50:35.855Z,7.260
2023-03-15T09:51:35.727Z,7.25
2023-03-15T09:52:36.498Z,7.25
2023-03-15T09:53:35.369Z,7.291
2023-03-15T09:54:36.253Z,7.291
2023-03-15T09:55:41.063Z,7.260
2023-03-15T09:56:36.625Z,7.270
2023-03-15T09:57:41.541Z,7.291
2023-03-15T09:58:36.869Z,7.270
2023-03-15T09:59:37.564Z,7.291
2023-03-15T10:00:38.259Z,7.291
2023-03-15T10:01:41.774Z,7.301
2023-03-15T10:02:37.786Z,7.311
2023-03-15T10:03:42.155Z,7.311
2023-03-15T10:04:36.375Z,7.311
2023-03-15T10:05:36.918Z,7.311
2023-03-15T10:06:37.896Z,7.311
2023-03-15T10:07:35.596Z,7.311
2023-03-15T10:08:36.087Z,7.311
2023-03-15T10:09:35.862Z,7.354
2023-03-15T10:10:37.295Z,7.322
2023-03-15T10:11:35.902Z,7.354
2023-03-15T10:12:37.193Z,7.333
2023-03-15T10:13:44.438Z,7.322
2023-03-15T10:14:35.974Z,7.311
2023-03-15T10:15:38.461Z,7.354
2023-03-15T10:16:36.735Z,7.375
2023-03-15T10:17:50.801Z,7.364
2023-03-15T10:18:37.326Z,7.364
2023-03-15T10:19:36.929Z,7.311
2023-03-15T10:20:36.954Z,7.311
2023-03-15T10:21:36.316Z,7.322
2023-03-15T10:22:36.099Z,7.311
2023-03-15T10:24:05.931Z,7.311
2023-03-15T10:24:37.386Z,7.301
2023-03-15T10:25:36.883Z,7.311
2023-03-15T10:26:36.521Z,7.311
2023-03-15T10:28:07.388Z,7.322
2023-03-15T10:28:38.497Z,7.311
2023-03-15T10:29:36.511Z,7.311
2023-03-15T10:30:37.696Z,7.311
2023-03-15T10:31:58.156Z,7.322
2023-03-15T10:32:35.796Z,7.311
2023-03-15T10:33:36.358Z,7.311
2023-03-15T10:34:35.347Z,7.311
2023-03-15T10:35:36.052Z,7.311
2023-03-15T10:36:35.802Z,7.311
2023-03-15T10:37:36.048Z,7.311
2023-03-15T10:38:35.607Z,7.311
2023-03-15T10:39:35.745Z,7.311
2023-03-15T10:40:36.236Z,7.311
2023-03-15T10:41:42.809Z,7.311
2023-03-15T10:42:35.857Z,7.311
2023-03-15T10:43:35.913Z,7.311
2023-03-15T10:44:36.096Z,7.311
2023-03-15T10:45:36.057Z,7.311
2023-03-15T10:46:36.521Z,7.311
2023-03-15T10:47:40.969Z,7.311
2023-03-15T10:48:35.904Z,7.311
2023-03-15T10:49:36.574Z,7.311
2023-03-15T10:50:36.065Z,7.311
2023-03-15T10:51:35.805Z,7.311
2023-03-15T10:52:35.860Z,7.291
2023-03-15T10:53:36.748Z,7.25
2023-03-15T10:54:36.162Z,7.285
2023-03-15T10:55:35.758Z,7.311
2023-03-15T10:56:36.483Z,7.311
2023-03-15T10:57:36.305Z,7.311
2023-03-15T10:58:37.525Z,7.311
2023-03-15T10:59:35.567Z,7.311
2023-03-15T11:00:37.715Z,7.311
2023-03-15T11:01:37.737Z,7.311
2023-03-15T11:02:38.201Z,7.339
2023-03-15T11:03:37.626Z,7.337
2023-03-15T11:04:37.565Z,7.329
2023-03-15T11:06:41.096Z,7.329
2023-03-15T11:06:48.435Z,7.329
2023-03-15T11:07:36.201Z,7.311
2023-03-15T11:08:35.453Z,7.311
2023-03-15T11:10:37.208Z,7.329
2023-03-15T11:11:35.443Z,7.324
2023-03-15T11:12:36.334Z,7.311
2023-03-15T11:13:36.384Z,7.362
2023-03-15T11:14:35.984Z,7.311
2023-03-15T11:15:36.131Z,7.311
2023-03-15T11:16:36.226Z,7.311
2023-03-15T11:17:35.394Z,7.333
2023-03-15T11:18:35.756Z,7.375
2023-03-15T11:19:35.881Z,7.375
2023-03-15T11:20:36.920Z,7.375
2023-03-15T11:21:36.334Z,7.375
2023-03-15T11:22:35.456Z,7.375
2023-03-15T11:23:35.717Z,7.375
2023-03-15T11:24:35.996Z,7.375
2023-03-15T11:25:38.576Z,7.375
2023-03-15T11:26:46.515Z,7.375
2023-03-15T11:27:35.490Z,7.375
2023-03-15T11:28:35.318Z,7.375
2023-03-15T11:29:35.425Z,7.375
2023-03-15T11:30:35.986Z,7.375
2023-03-15T11:31:35.948Z,7.375
2023-03-15T11:32:36.126Z,7.375
2023-03-15T11:33:35.850Z,7.375
2023-03-15T11:34:36.310Z,7.375
2023-03-15T11:35:35.967Z,7.375
2023-03-15T11:36:36.323Z,7.375
2023-03-15T11:37:36.262Z,7.375
2023-03-15T11:38:36.126Z,7.375
2023-03-15T11:39:35.735Z,7.375
2023-03-15T11:40:35.910Z,7.375
2023-03-15T11:41:35.889Z,7.375
2023-03-15T11:42:36.071Z,7.375
2023-03-15T11:43:35.759Z,7.375
2023-03-15T11:44:35.876Z,7.375
2023-03-15T11:45:36.244Z,7.416
2023-03-15T11:46:40.551Z,7.416
2023-03-15T11:47:36.693Z,7.375
2023-03-15T11:48:36.218Z,7.416
2023-03-15T11:49:36.039Z,7.436
2023-03-15T11:50:36.152Z,7.436
2023-03-15T11:51:35.309Z,7.395
2023-03-15T11:52:40.388Z,7.426
2023-03-15T11:53:35.434Z,7.436
2023-03-15T11:54:35.822Z,7.436
2023-03-15T11:55:36.315Z,7.436
2023-03-15T11:56:40.381Z,7.436
2023-03-15T11:57:35.823Z,7.436
2023-03-15T11:58:35.461Z,7.436
2023-03-15T11:59:35.849Z,7.416
2023-03-15T12:00:42.169Z,7.395
2023-03-15T12:01:35.934Z,7.395
2023-03-15T12:02:36.435Z,7.395
2023-03-15T12:03:37.166Z,7.436
2023-03-15T12:04:35.803Z,7.436
2023-03-15T12:05:35.880Z,7.436
2023-03-15T12:06:36.215Z,7.436
2023-03-15T12:07:35.583Z,7.436
2023-03-15T12:08:49.784Z,7.436
2023-03-15T12:09:38.741Z,7.436
2023-03-15T12:10:36.200Z,7.436
2023-03-15T12:11:36.199Z,7.436
2023-03-15T12:13:35.810Z,7.436
2023-03-15T12:14:35.797Z,7.436
2023-03-15T12:15:36.985Z,7.436
2023-03-15T12:16:49.470Z,7.436
2023-03-15T12:17:37.462Z,7.436
2023-03-15T12:18:35.859Z,7.458
2023-03-15T12:19:36.048Z,7.436
2023-03-15T12:20:41.099Z,7.436
2023-03-15T12:21:35.588Z,7.436
2023-03-15T12:22:57.406Z,7.436
2023-03-15T12:23:35.710Z,7.436
2023-03-15T12:24:35.921Z,7.436
2023-03-15T12:25:45.463Z,7.436
2023-03-15T12:26:55.496Z,7.436
2023-03-15T12:27:36.576Z,7.436
2023-03-15T12:28:41.041Z,7.447
2023-03-15T12:29:35.852Z,7.5
2023-03-15T12:30:56.078Z,7.454
2023-03-15T12:31:36.211Z,7.462
2023-03-15T12:32:35.690Z,7.454
2023-03-15T12:33:36.429Z,7.436
2023-03-15T12:34:35.658Z,7.464
2023-03-15T12:35:36.275Z,7.462
2023-03-15T12:36:36.275Z,7.454
2023-03-15T12:37:35.840Z,7.436
2023-03-15T12:38:36.548Z,7.436
2023-03-15T12:39:35.623Z,7.436
2023-03-15T12:40:35.713Z,7.436
2023-03-15T12:41:36.431Z,7.436
2023-03-15T12:42:35.791Z,7.436
2023-03-15T12:43:36.012Z,7.436
2023-03-15T12:44:35.111Z,7.436
2023-03-15T12:45:37.564Z,7.436
2023-03-15T12:46:35.761Z,7.436
2023-03-15T12:47:36.467Z,7.436
2023-03-15T12:48:35.466Z,7.436
2023-03-15T12:49:35.742Z,7.447
2023-03-15T12:50:35.918Z,7.464
2023-03-15T12:51:36.435Z,7.436
2023-03-15T12:52:55.135Z,7.479
2023-03-15T12:53:36.435Z,7.5
2023-03-15T12:54:36.755Z,7.489
2023-03-15T12:55:36.545Z,7.479
2023-03-15T12:56:35.957Z,7.5
2023-03-15T12:57:37.205Z,7.5
2023-03-15T12:58:36.267Z,7.5
2023-03-15T12:59:37.236Z,7.5
2023-03-15T13:00:37.769Z,7.5
2023-03-15T13:01:37.299Z,7.5
2023-03-15T13:02:50.020Z,7.5
2023-03-15T13:03:37.112Z,7.5
2023-03-15T13:04:37.296Z,7.5
2023-03-15T13:05:37.378Z,7.5
2023-03-15T13:06:37.042Z,7.5
2023-03-15T13:07:50.189Z,7.489
2023-03-15T13:08:36.378Z,7.5
2023-03-15T13:09:37.166Z,7.5
2023-03-15T13:10:58.775Z,7.5
2023-03-15T13:11:37.173Z,7.5
2023-03-15T13:12:36.741Z,7.5
2023-03-15T13:13:37.198Z,7.5
2023-03-15T13:14:36.712Z,7.5
2023-03-15T13:15:39.668Z,7.5
2023-03-15T13:16:36.348Z,7.5